createdAt,value
2023-01-08T00:01:12.580Z,-0.60
2023-01-08T00:03:40.086Z,-0.70
2023-01-08T00:06:10.727Z,-0.80
2023-01-08T00:08:37.469Z,-0.80
2023-01-08T00:11:04.253Z,-0.80
2023-01-08T00:13:30.922Z,-0.70
2023-01-08T00:15:57.589Z,-0.70
2023-01-08T00:18:26.547Z,-0.70
2023-01-08T00:20:53.216Z,-0.70
2023-01-08T00:23:20.627Z,-0.80
2023-01-08T00:25:47.512Z,-0.80
2023-01-08T00:28:17.044Z,-0.90
2023-01-08T00:30:43.922Z,-0.90
2023-01-08T00:33:11.384Z,-0.90
2023-01-08T00:35:38.954Z,-0.90
2023-01-08T00:38:06.120Z,-1.00
2023-01-08T00:40:36.479Z,-1.00
2023-01-08T00:43:03.587Z,-1.00
2023-01-08T00:45:30.496Z,-1.00
2023-01-08T00:47:57.529Z,-1.00
2023-01-08T00:50:24.795Z,-1.00
2023-01-08T00:52:51.562Z,-0.90
2023-01-08T00:55:18.529Z,-0.90
2023-01-08T00:57:45.181Z,-0.90
2023-01-08T01:00:15.269Z,-0.90
2023-01-08T01:02:42.011Z,-1.00
2023-01-08T01:05:09.897Z,-1.00
2023-01-08T01:07:36.853Z,-1.00
2023-01-08T01:10:03.975Z,-0.90
2023-01-08T01:12:30.723Z,-1.00
2023-01-08T01:14:57.463Z,-1.00
2023-01-08T01:17:24.336Z,-1.00
2023-01-08T01:19:51.150Z,-1.10
2023-01-08T01:22:17.815Z,-1.20
2023-01-08T01:24:44.482Z,-1.10
2023-01-08T01:27:11.178Z,-1.10
2023-01-08T01:29:37.876Z,-1.20
2023-01-08T01:32:05.999Z,-1.20
2023-01-08T01:34:32.896Z,-1.20
2023-01-08T01:36:59.619Z,-1.20
2023-01-08T01:39:26.525Z,-1.20
2023-01-08T01:41:53.388Z,-1.10
2023-01-08T01:44:34.226Z,-1.10
2023-01-08T01:47:29.220Z,-1.20
2023-01-08T01:50:10.473Z,-1.20
2023-01-08T01:52:41.878Z,-1.40
2023-01-08T01:55:11.255Z,-1.40
2023-01-08T01:57:39.465Z,-1.40
2023-01-08T02:00:09.147Z,-1.70
2023-01-08T02:02:41.953Z,-1.80
2023-01-08T02:05:09.241Z,-1.80
2023-01-08T02:07:42.466Z,-1.70
2023-01-08T02:10:19.879Z,-1.60
2023-01-08T02:13:02.635Z,-1.60
2023-01-08T02:15:52.092Z,-1.50
2023-01-08T02:18:24.080Z,-1.50
2023-01-08T02:21:07.742Z,-1.50
2023-01-08T02:23:42.211Z,-1.50
2023-01-08T02:26:29.204Z,-1.40
2023-01-08T02:29:03.410Z,-1.40
2023-01-08T02:31:32.013Z,-1.50
2023-01-08T02:33:59.038Z,-1.50
2023-01-08T02:36:32.106Z,-1.50
2023-01-08T02:39:14.391Z,-1.50
2023-01-08T02:41:50.297Z,-1.60
2023-01-08T02:44:28.917Z,-1.70
2023-01-08T02:46:57.964Z,-1.70
2023-01-08T02:49:30.401Z,-1.60
2023-01-08T02:51:57.359Z,-1.60
2023-01-08T02:54:29.943Z,-1.40
2023-01-08T02:57:06.468Z,-1.40
2023-01-08T02:59:35.294Z,-1.30
2023-01-08T03:02:03.467Z,-1.30
2023-01-08T03:04:36.425Z,-1.40
2023-01-08T03:07:03.246Z,-1.40
2023-01-08T03:09:30.754Z,-1.40
2023-01-08T03:12:04.130Z,-1.40
2023-01-08T03:14:42.842Z,-1.40
2023-01-08T03:17:22.324Z,-1.40
2023-01-08T03:19:53.624Z,-1.30
2023-01-08T03:22:21.328Z,-1.30
2023-01-08T03:24:51.885Z,-1.30
2023-01-08T03:27:23.317Z,-1.30
2023-01-08T03:29:52.491Z,-1.30
2023-01-08T03:32:21.799Z,-1.40
2023-01-08T03:34:50.627Z,-1.40
2023-01-08T03:37:22.513Z,-1.50
2023-01-08T03:40:29.420Z,-1.50
2023-01-08T03:42:57.804Z,-1.50
2023-01-08T03:45:26.849Z,-1.40
2023-01-08T03:47:54.644Z,-1.30
2023-01-08T03:50:26.325Z,-1.30
2023-01-08T03:52:53.003Z,-1.40
2023-01-08T03:55:19.998Z,-1.40
2023-01-08T03:57:46.673Z,-1.40
2023-01-08T04:00:13.888Z,-1.60
2023-01-08T04:02:42.164Z,-1.50
2023-01-08T04:05:10.111Z,-1.50
2023-01-08T04:07:36.822Z,-1.60
2023-01-08T04:10:03.753Z,-1.60
2023-01-08T04:12:30.388Z,-1.60
2023-01-08T04:14:57.083Z,-1.60
2023-01-08T04:17:23.741Z,-1.60
2023-01-08T04:19:50.407Z,-1.50
2023-01-08T04:22:17.038Z,-1.40
2023-01-08T04:24:43.673Z,-1.50
2023-01-08T04:27:10.319Z,-1.40
2023-01-08T04:29:36.975Z,-1.30
2023-01-08T04:32:03.700Z,-1.30
2023-01-08T04:34:30.348Z,-1.30
2023-01-08T04:36:57.046Z,-1.40
2023-01-08T04:39:23.737Z,-1.40
2023-01-08T04:41:50.403Z,-1.30
2023-01-08T04:44:17.069Z,-1.40
2023-01-08T04:46:43.755Z,-1.30
2023-01-08T04:49:14.267Z,-1.30
2023-01-08T04:51:40.934Z,-1.40
2023-01-08T04:54:07.592Z,-1.40
2023-01-08T04:56:34.234Z,-1.40
2023-01-08T04:59:01.001Z,-1.60
2023-01-08T05:01:28.761Z,-1.60
2023-01-08T05:04:00.163Z,-1.60
2023-01-08T05:06:29.060Z,-1.60
2023-01-08T05:08:56.020Z,-1.60
2023-01-08T05:11:23.197Z,-1.50
2023-01-08T05:13:51.297Z,-1.50
2023-01-08T05:16:18.308Z,-1.50
2023-01-08T05:18:45.425Z,-1.50
2023-01-08T05:21:13.199Z,-1.50
2023-01-08T05:23:40.048Z,-1.40
2023-01-08T05:26:07.076Z,-1.40
2023-01-08T05:28:34.367Z,-1.40
2023-01-08T05:31:01.162Z,-1.40
2023-01-08T05:33:28.128Z,-1.50
2023-01-08T05:35:54.925Z,-1.40
2023-01-08T05:38:21.723Z,-1.50
2023-01-08T05:40:48.399Z,-1.50
2023-01-08T05:43:15.064Z,-1.40
2023-01-08T05:45:41.694Z,-1.50
2023-01-08T05:48:08.581Z,-1.50
2023-01-08T05:50:35.636Z,-1.40
2023-01-08T05:53:05.625Z,-1.30
2023-01-08T05:55:32.267Z,-1.20
2023-01-08T05:58:05.467Z,-1.20
2023-01-08T06:00:33.293Z,-1.10
2023-01-08T06:02:59.957Z,-1.10
2023-01-08T06:05:26.697Z,-1.00
2023-01-08T06:07:53.410Z,-1.00
2023-01-08T06:10:20.153Z,-1.10
2023-01-08T06:12:46.829Z,-1.10
2023-01-08T06:15:13.495Z,-1.20
2023-01-08T06:17:40.297Z,-1.20
2023-01-08T06:20:07.459Z,-1.00
2023-01-08T06:22:34.693Z,-0.90
2023-01-08T06:25:01.618Z,-0.90
2023-01-08T06:27:28.299Z,-0.80
2023-01-08T06:29:54.960Z,-0.80
2023-01-08T06:32:21.679Z,-0.80
2023-01-08T06:34:48.332Z,-0.80
2023-01-08T06:37:15.370Z,-0.70
2023-01-08T06:39:42.023Z,-0.70
2023-01-08T06:42:08.690Z,-0.60
2023-01-08T06:44:35.317Z,-0.60
2023-01-08T06:47:01.980Z,-0.50
2023-01-08T06:49:28.631Z,-0.50
2023-01-08T06:51:55.319Z,-0.50
2023-01-08T06:54:21.969Z,-0.50
2023-01-08T06:56:53.943Z,-0.40
2023-01-08T06:59:21.255Z,-0.40
2023-01-08T07:01:48.071Z,-0.50
2023-01-08T07:04:14.985Z,-0.50
2023-01-08T07:06:41.626Z,-0.40
2023-01-08T07:09:14.841Z,-0.40
2023-01-08T07:11:42.033Z,-0.40
2023-01-08T07:14:08.978Z,-0.40
2023-01-08T07:16:36.149Z,-0.30
2023-01-08T07:19:03.204Z,-0.30
2023-01-08T07:21:30.982Z,-0.30
2023-01-08T07:23:59.334Z,-0.30
2023-01-08T07:26:26.107Z,-0.20
2023-01-08T07:28:52.754Z,-0.10
2023-01-08T07:31:19.504Z,-0.10
2023-01-08T07:33:46.157Z,-0.10
2023-01-08T07:36:12.857Z,-0.10
2023-01-08T07:38:39.497Z,-0.10
2023-01-08T07:41:06.184Z,-0.10
2023-01-08T07:43:32.838Z,0.00
2023-01-08T07:46:03.648Z,0.00
2023-01-08T07:48:30.330Z,0.00
2023-01-08T07:51:05.077Z,0.00
2023-01-08T07:53:31.868Z,0.10
2023-01-08T07:56:03.063Z,0.10
2023-01-08T07:58:29.725Z,0.20
2023-01-08T08:00:59.069Z,0.20
2023-01-08T08:03:26.252Z,0.20
2023-01-08T08:05:53.272Z,0.20
2023-01-08T08:08:20.564Z,0.30
2023-01-08T08:10:47.484Z,0.30
2023-01-08T08:13:15.079Z,0.40
2023-01-08T08:15:41.831Z,0.40
2023-01-08T08:18:09.011Z,0.30
2023-01-08T08:20:36.257Z,0.30
2023-01-08T08:23:14.326Z,0.30
2023-01-08T08:25:42.313Z,0.20
2023-01-08T08:28:10.718Z,0.30
2023-01-08T08:30:38.464Z,0.40
2023-01-08T08:33:07.056Z,0.60
2023-01-08T08:35:35.014Z,0.70
2023-01-08T08:38:01.831Z,0.90
2023-01-08T08:40:28.871Z,1.00
2023-01-08T08:42:59.886Z,1.10
2023-01-08T08:45:27.224Z,1.10
2023-01-08T08:47:54.369Z,1.30
2023-01-08T08:50:21.504Z,1.40
2023-01-08T08:52:48.935Z,1.40
2023-01-08T08:55:17.343Z,1.40
2023-01-08T08:57:45.827Z,1.50
2023-01-08T09:00:14.256Z,1.50
2023-01-08T09:02:41.057Z,1.60
2023-01-08T09:05:08.126Z,1.60
2023-01-08T09:07:34.820Z,1.70
2023-01-08T09:10:01.708Z,1.80
2023-01-08T09:12:28.370Z,1.90
2023-01-08T09:14:56.981Z,2.00
2023-01-08T09:17:25.170Z,2.10
2023-01-08T09:19:51.903Z,2.20
2023-01-08T09:22:18.723Z,2.30
2023-01-08T09:24:45.495Z,2.40
2023-01-08T09:27:12.645Z,2.50
2023-01-08T09:29:39.349Z,2.50
2023-01-08T09:32:07.288Z,2.60
2023-01-08T09:34:36.102Z,2.90
2023-01-08T09:37:03.300Z,3.00
2023-01-08T09:39:29.973Z,3.20
2023-01-08T09:41:58.856Z,3.20
2023-01-08T09:44:30.264Z,3.30
2023-01-08T09:46:57.715Z,3.40
2023-01-08T09:49:39.476Z,3.50
2023-01-08T09:52:06.247Z,3.50
2023-01-08T09:54:33.023Z,3.50
2023-01-08T09:57:00.429Z,3.60
2023-01-08T09:59:27.410Z,3.50
2023-01-08T10:01:54.626Z,3.40
2023-01-08T10:04:29.570Z,3.40
2023-01-08T10:07:01.452Z,3.30
2023-01-08T10:09:30.286Z,3.30
2023-01-08T10:12:01.154Z,3.20
2023-01-08T10:14:33.938Z,3.30
2023-01-08T10:17:11.397Z,3.30
2023-01-08T10:19:38.693Z,3.20
2023-01-08T10:22:14.918Z,3.30
2023-01-08T10:24:41.659Z,3.40
2023-01-08T10:27:15.122Z,3.60
2023-01-08T10:29:41.812Z,3.60
2023-01-08T10:32:16.311Z,3.70
2023-01-08T10:34:49.307Z,3.80
2023-01-08T10:37:29.637Z,3.90
2023-01-08T10:40:45.409Z,4.10
2023-01-08T10:43:16.945Z,4.20
2023-01-08T10:45:54.566Z,4.30
2023-01-08T10:48:21.441Z,4.40
2023-01-08T10:50:48.174Z,4.40
2023-01-08T10:53:25.377Z,4.50
2023-01-08T10:56:02.986Z,4.70
2023-01-08T10:58:30.736Z,4.80
2023-01-08T11:01:10.904Z,5.00
2023-01-08T11:03:37.924Z,5.20
2023-01-08T11:06:19.334Z,5.30
2023-01-08T11:08:53.546Z,5.50
2023-01-08T11:11:20.545Z,5.60
2023-01-08T11:14:02.138Z,5.70
2023-01-08T11:16:34.864Z,5.70
2023-01-08T11:19:01.721Z,5.70
2023-01-08T11:21:33.255Z,5.80
2023-01-08T11:24:19.769Z,5.90
2023-01-08T11:26:52.041Z,5.80
2023-01-08T11:29:38.651Z,5.80
2023-01-08T11:32:40.726Z,5.80
2023-01-08T11:35:21.438Z,5.80
2023-01-08T11:37:53.919Z,5.80
2023-01-08T11:40:38.505Z,5.80
2023-01-08T11:43:24.093Z,5.90
2023-01-08T11:46:08.742Z,5.90
2023-01-08T11:48:41.462Z,6.00
2023-01-08T11:51:26.311Z,5.90
2023-01-08T11:54:27.843Z,5.90
2023-01-08T11:57:13.515Z,5.80
2023-01-08T12:00:02.583Z,5.80
2023-01-08T12:02:55.491Z,5.80
2023-01-08T12:05:30.554Z,5.80
2023-01-08T12:08:03.873Z,5.80
2023-01-08T12:10:45.378Z,5.80
2023-01-08T12:13:15.341Z,5.80
2023-01-08T12:16:14.209Z,5.80
2023-01-08T12:19:17.952Z,5.80
2023-01-08T12:22:16.517Z,5.80
2023-01-08T12:25:01.142Z,5.80
2023-01-08T12:28:06.670Z,5.80
2023-01-08T12:30:57.683Z,5.80
2023-01-08T12:33:33.487Z,5.80
2023-01-08T12:36:05.232Z,5.90
2023-01-08T12:38:34.108Z,5.90
2023-01-08T12:41:06.957Z,5.80
2023-01-08T12:43:43.467Z,5.80
2023-01-08T12:46:15.446Z,5.80
2023-01-08T12:48:43.506Z,5.90
2023-01-08T12:51:19.126Z,5.80
2023-01-08T12:54:14.640Z,5.80
2023-01-08T12:56:50.810Z,5.80
2023-01-08T12:59:54.140Z,5.80
2023-01-08T13:02:51.712Z,5.80
2023-01-08T13:05:18.386Z,5.70
2023-01-08T13:07:52.312Z,5.70
2023-01-08T13:10:39.069Z,5.80
2023-01-08T13:13:08.293Z,5.80
2023-01-08T13:15:35.990Z,5.80
2023-01-08T13:18:17.692Z,5.90
2023-01-08T13:20:56.604Z,6.00
2023-01-08T13:23:29.635Z,6.00
2023-01-08T13:25:58.546Z,6.10
2023-01-08T13:28:25.163Z,6.20
2023-01-08T13:30:51.953Z,6.30
2023-01-08T13:33:39.542Z,6.40
2023-01-08T13:36:16.912Z,6.40
2023-01-08T13:38:44.820Z,6.40
2023-01-08T13:41:37.051Z,6.40
2023-01-08T13:44:25.345Z,6.40
2023-01-08T13:47:00.305Z,6.30
2023-01-08T13:49:51.184Z,6.30
2023-01-08T13:52:32.299Z,6.30
2023-01-08T13:55:01.874Z,6.30
2023-01-08T13:57:43.853Z,6.30
2023-01-08T14:00:37.814Z,6.30
2023-01-08T14:03:04.546Z,6.30
2023-01-08T14:05:36.838Z,6.30
2023-01-08T14:08:03.555Z,6.40
2023-01-08T14:10:31.472Z,6.40
2023-01-08T14:13:08.452Z,6.40
2023-01-08T14:15:35.851Z,6.40
2023-01-08T14:18:04.721Z,6.40
2023-01-08T14:20:33.123Z,6.40
2023-01-08T14:23:01.306Z,6.40
2023-01-08T14:25:28.731Z,6.30
2023-01-08T14:28:01.055Z,6.30
2023-01-08T14:30:28.739Z,6.30
2023-01-08T14:32:57.810Z,6.20
2023-01-08T14:35:34.429Z,6.20
2023-01-08T14:38:02.631Z,6.20
2023-01-08T14:40:37.750Z,6.20
2023-01-08T14:43:09.508Z,6.20
2023-01-08T14:45:38.127Z,6.10
2023-01-08T14:48:21.669Z,6.00
2023-01-08T14:51:01.038Z,6.00
2023-01-08T14:53:32.023Z,6.00
2023-01-08T14:55:59.731Z,6.00
2023-01-08T14:58:29.677Z,6.00
2023-01-08T15:01:02.752Z,6.10
2023-01-08T15:03:34.700Z,6.00
2023-01-08T15:06:01.738Z,6.00
2023-01-08T15:08:37.383Z,6.00
2023-01-08T15:11:21.572Z,6.00
2023-01-08T15:13:49.731Z,5.90
2023-01-08T15:16:29.067Z,5.90
2023-01-08T15:19:17.858Z,5.90
2023-01-08T15:21:49.389Z,5.80
2023-01-08T15:24:32.050Z,5.80
2023-01-08T15:26:59.691Z,5.70
2023-01-08T15:29:37.109Z,5.70
2023-01-08T15:32:15.907Z,5.70
2023-01-08T15:34:43.958Z,5.60
2023-01-08T15:37:10.786Z,5.60
2023-01-08T15:39:37.515Z,5.50
2023-01-08T15:42:50.520Z,5.50
2023-01-08T15:45:20.366Z,5.40
2023-01-08T15:47:47.072Z,5.30
2023-01-08T15:50:14.287Z,5.20
2023-01-08T15:52:42.764Z,5.20
2023-01-08T15:55:24.111Z,5.20
2023-01-08T15:57:50.966Z,5.10
2023-01-08T16:00:19.692Z,5.10
2023-01-08T16:02:48.315Z,5.00
2023-01-08T16:05:19.719Z,5.00
2023-01-08T16:07:46.519Z,4.80
2023-01-08T16:10:17.488Z,4.80
2023-01-08T16:12:44.781Z,4.80
2023-01-08T16:15:12.457Z,4.70
2023-01-08T16:17:39.260Z,4.70
2023-01-08T16:20:07.304Z,4.70
2023-01-08T16:22:33.992Z,4.60
2023-01-08T16:25:00.914Z,4.60
2023-01-08T16:27:27.648Z,4.50
2023-01-08T16:29:54.688Z,4.50
2023-01-08T16:32:21.351Z,4.40
2023-01-08T16:34:48.048Z,4.30
2023-01-08T16:37:14.918Z,4.20
2023-01-08T16:39:41.697Z,4.10
2023-01-08T16:42:09.641Z,4.00
2023-01-08T16:44:36.772Z,3.90
2023-01-08T16:47:03.493Z,3.90
2023-01-08T16:49:30.400Z,3.90
2023-01-08T16:51:57.128Z,3.90
2023-01-08T16:54:24.006Z,3.80
2023-01-08T16:56:52.341Z,3.80
2023-01-08T16:59:23.724Z,3.80
2023-01-08T17:01:51.802Z,3.80
2023-01-08T17:04:18.669Z,3.80
2023-01-08T17:06:46.694Z,3.80
2023-01-08T17:09:13.456Z,3.80
2023-01-08T17:11:40.145Z,3.90
2023-01-08T17:14:06.937Z,3.90
2023-01-08T17:16:33.676Z,4.00
2023-01-08T17:19:00.371Z,3.90
2023-01-08T17:21:27.128Z,4.00
2023-01-08T17:23:53.831Z,4.00
2023-01-08T17:26:20.774Z,3.90
2023-01-08T17:28:47.603Z,3.90
2023-01-08T17:31:18.820Z,3.90
2023-01-08T17:33:50.069Z,3.90
2023-01-08T17:36:19.461Z,4.00
2023-01-08T17:38:50.563Z,3.90
2023-01-08T17:41:36.802Z,3.90
2023-01-08T17:44:07.914Z,3.90
2023-01-08T17:46:36.092Z,3.90
2023-01-08T17:49:04.143Z,3.90
2023-01-08T17:51:32.366Z,3.90
2023-01-08T17:53:59.919Z,3.90
2023-01-08T17:56:26.923Z,3.80
2023-01-08T17:58:53.795Z,3.80
2023-01-08T18:01:20.943Z,3.80
2023-01-08T18:03:47.739Z,3.80
2023-01-08T18:06:14.450Z,3.90
2023-01-08T18:08:41.573Z,3.80
2023-01-08T18:11:10.023Z,3.80
2023-01-08T18:13:37.656Z,3.80
2023-01-08T18:16:06.949Z,3.80
2023-01-08T18:18:35.104Z,3.80
2023-01-08T18:21:02.198Z,3.70
2023-01-08T18:23:29.394Z,3.80
2023-01-08T18:25:56.228Z,3.80
2023-01-08T18:28:23.171Z,3.70
2023-01-08T18:30:49.962Z,3.70
2023-01-08T18:33:16.637Z,3.70
2023-01-08T18:35:43.692Z,3.70
2023-01-08T18:38:15.476Z,3.70
2023-01-08T18:40:43.325Z,3.70
2023-01-08T18:43:10.997Z,3.70
2023-01-08T18:45:38.731Z,3.60
2023-01-08T18:48:06.878Z,3.50
2023-01-08T18:50:33.610Z,3.50
2023-01-08T18:53:00.348Z,3.60
2023-01-08T18:55:27.014Z,3.60
2023-01-08T18:57:53.680Z,3.70
2023-01-08T19:00:20.857Z,3.70
2023-01-08T19:02:47.628Z,3.70
2023-01-08T19:05:14.487Z,3.80
2023-01-08T19:07:42.184Z,3.80
2023-01-08T19:10:11.093Z,3.90
2023-01-08T19:12:39.104Z,3.90
2023-01-08T19:15:06.755Z,3.90
2023-01-08T19:17:33.542Z,3.90
2023-01-08T19:20:00.255Z,4.00
2023-01-08T19:22:27.106Z,3.90
2023-01-08T19:24:54.510Z,3.90
2023-01-08T19:27:21.539Z,3.90
2023-01-08T19:29:48.863Z,3.90
2023-01-08T19:32:15.933Z,3.90
2023-01-08T19:34:42.804Z,3.80
2023-01-08T19:37:11.358Z,3.80
2023-01-08T19:39:38.169Z,3.80
2023-01-08T19:42:23.622Z,3.80
2023-01-08T19:44:50.327Z,3.80
2023-01-08T19:47:17.081Z,3.80
2023-01-08T19:49:47.528Z,3.70
2023-01-08T19:52:17.619Z,3.70
2023-01-08T19:54:44.554Z,3.60
2023-01-08T19:57:11.240Z,3.50
2023-01-08T19:59:37.996Z,3.40
2023-01-08T20:02:05.053Z,3.30
2023-01-08T20:04:33.633Z,3.20
2023-01-08T20:07:00.891Z,3.10
2023-01-08T20:09:28.912Z,3.10
2023-01-08T20:11:55.825Z,3.10
2023-01-08T20:14:22.493Z,3.10
2023-01-08T20:16:49.172Z,3.20
2023-01-08T20:19:15.862Z,3.30
2023-01-08T20:21:42.569Z,3.30
2023-01-08T20:24:14.006Z,3.40
2023-01-08T20:26:43.806Z,3.40
2023-01-08T20:29:11.567Z,3.40
2023-01-08T20:31:39.946Z,3.50
2023-01-08T20:34:10.485Z,3.50
2023-01-08T20:36:37.462Z,3.50
2023-01-08T20:39:10.861Z,3.60
2023-01-08T20:41:37.504Z,3.60
2023-01-08T20:44:08.199Z,3.60
2023-01-08T20:46:36.767Z,3.60
2023-01-08T20:49:07.459Z,3.60
2023-01-08T20:51:35.745Z,3.60
2023-01-08T20:54:04.324Z,3.70
2023-01-08T20:56:31.071Z,3.70
2023-01-08T20:58:58.189Z,3.70
2023-01-08T21:01:28.232Z,3.70
2023-01-08T21:03:56.813Z,3.80
2023-01-08T21:06:25.715Z,3.70
2023-01-08T21:08:54.692Z,3.70
2023-01-08T21:11:22.090Z,3.70
2023-01-08T21:13:49.235Z,3.70
2023-01-08T21:16:21.964Z,3.70
2023-01-08T21:18:50.203Z,3.60
2023-01-08T21:21:19.548Z,3.70
2023-01-08T21:23:47.397Z,3.70
2023-01-08T21:26:15.303Z,3.70
2023-01-08T21:28:42.120Z,3.70
2023-01-08T21:31:11.711Z,3.70
2023-01-08T21:33:38.790Z,3.70
2023-01-08T21:36:14.048Z,3.70
2023-01-08T21:38:41.553Z,3.60
2023-01-08T21:41:11.505Z,3.70
2023-01-08T21:43:56.610Z,3.70
2023-01-08T21:46:28.055Z,3.70
2023-01-08T21:48:54.749Z,3.70
2023-01-08T21:51:40.212Z,3.60
2023-01-08T21:54:06.973Z,3.70
2023-01-08T21:56:33.719Z,3.60
2023-01-08T21:59:00.427Z,3.60
2023-01-08T22:01:27.112Z,3.60
2023-01-08T22:03:54.294Z,3.60
2023-01-08T22:06:20.957Z,3.70
2023-01-08T22:08:52.283Z,3.60
2023-01-08T22:11:19.127Z,3.60
2023-01-08T22:13:45.971Z,3.60
2023-01-08T22:16:12.971Z,3.60
2023-01-08T22:18:39.790Z,3.60
2023-01-08T22:21:09.949Z,3.60
2023-01-08T22:23:37.282Z,3.60
2023-01-08T22:26:05.848Z,3.60
2023-01-08T22:28:33.354Z,3.50
2023-01-08T22:31:04.198Z,3.50
2023-01-08T22:33:30.842Z,3.50
2023-01-08T22:35:57.510Z,3.50
2023-01-08T22:38:24.235Z,3.50
2023-01-08T22:40:50.884Z,3.50
2023-01-08T22:43:17.542Z,3.50
2023-01-08T22:45:50.957Z,3.40
2023-01-08T22:48:17.617Z,3.20
2023-01-08T22:50:44.347Z,3.10
2023-01-08T22:53:11.073Z,3.00
2023-01-08T22:55:48.309Z,2.90
2023-01-08T22:58:16.418Z,2.90
2023-01-08T23:00:43.420Z,2.90
2023-01-08T23:03:10.614Z,2.80
2023-01-08T23:05:37.580Z,2.80
2023-01-08T23:08:04.565Z,2.80
2023-01-08T23:10:31.578Z,2.90
2023-01-08T23:12:58.489Z,3.00
2023-01-08T23:15:25.495Z,3.10
2023-01-08T23:17:52.912Z,3.10
2023-01-08T23:20:20.645Z,3.20
2023-01-08T23:22:48.056Z,3.20
2023-01-08T23:25:15.638Z,3.30
2023-01-08T23:27:42.320Z,3.30
2023-01-08T23:30:09.660Z,3.30
2023-01-08T23:32:36.355Z,3.30
2023-01-08T23:35:03.144Z,3.40
2023-01-08T23:37:29.793Z,3.50
2023-01-08T23:39:56.445Z,3.50
2023-01-08T23:42:23.088Z,3.50
2023-01-08T23:44:49.960Z,3.50
2023-01-08T23:47:16.653Z,3.50
2023-01-08T23:49:43.425Z,3.50
2023-01-08T23:52:10.323Z,3.50
2023-01-08T23:54:37.045Z,3.60
2023-01-08T23:57:06.427Z,3.60
2023-01-08T23:59:33.144Z,3.60
